sensor_id;sensor_type;location;lat;lon;timestamp;pressure;altitude;pressure_sealevel;temperature;humidity
55068;BME280;40965;52.368;9.712;2023-02-01T00:00:52;100795.66;;;3.95;94.23
55068;BME280;40965;52.368;9.712;2023-02-01T00:03:21;100800.00;;;3.97;93.75
55068;BME280;40965;52.368;9.712;2023-02-01T00:05:58;100807.94;;;4.05;93.29
55068;BME280;40965;52.368;9.712;2023-02-01T00:08:25;100803.56;;;4.03;93.00
55068;BME280;40965;52.368;9.712;2023-02-01T00:10:59;100794.00;;;3.98;92.62
55068;BME280;40965;52.368;9.712;2023-02-01T00:13:31;100800.13;;;4.02;92.91
55068;BME280;40965;52.368;9.712;2023-02-01T00:16:06;100797.41;;;3.96;93.26
55068;BME280;40965;52.368;9.712;2023-02-01T00:18:33;100793.94;;;3.95;93.52
55068;BME280;40965;52.368;9.712;2023-02-01T00:21:00;100789.59;;;3.93;93.46
55068;BME280;40965;52.368;9.712;2023-02-01T00:23:26;100787.03;;;3.96;92.95
55068;BME280;40965;52.368;9.712;2023-02-01T00:25:53;100791.38;;;3.97;92.65
55068;BME280;40965;52.368;9.712;2023-02-01T00:28:19;100775.06;;;4.03;92.00
55068;BME280;40965;52.368;9.712;2023-02-01T00:30:46;100782.63;;;3.90;92.93
55068;BME280;40965;52.368;9.712;2023-02-01T00:33:12;100789.59;;;3.94;92.54
55068;BME280;40965;52.368;9.712;2023-02-01T00:35:39;100789.59;;;3.94;93.00
55068;BME280;40965;52.368;9.712;2023-02-01T00:38:05;100787.75;;;3.87;93.44
55068;BME280;40965;52.368;9.712;2023-02-01T00:40:32;100784.34;;;3.90;93.26
55068;BME280;40965;52.368;9.712;2023-02-01T00:42:58;100787.84;;;3.93;93.66
55068;BME280;40965;52.368;9.712;2023-02-01T00:45:24;100786.09;;;3.92;93.29
55068;BME280;40965;52.368;9.712;2023-02-01T00:47:51;100779.97;;;3.87;93.83
55068;BME280;40965;52.368;9.712;2023-02-01T00:50:18;100776.66;;;3.94;93.00
55068;BME280;40965;52.368;9.712;2023-02-01T00:52:44;100765.47;;;3.95;93.05
55068;BME280;40965;52.368;9.712;2023-02-01T00:55:10;100766.31;;;3.96;93.13
55068;BME280;40965;52.368;9.712;2023-02-01T00:57:37;100767.09;;;3.90;93.35
55068;BME280;40965;52.368;9.712;2023-02-01T01:00:03;100769.63;;;3.87;93.52
55068;BME280;40965;52.368;9.712;2023-02-01T01:02:30;100760.94;;;3.85;93.64
55068;BME280;40965;52.368;9.712;2023-02-01T01:04:57;100754.84;;;3.83;93.43
55068;BME280;40965;52.368;9.712;2023-02-01T01:07:23;100760.88;;;3.82;93.70
55068;BME280;40965;52.368;9.712;2023-02-01T01:09:50;100760.81;;;3.80;93.63
55068;BME280;40965;52.368;9.712;2023-02-01T01:12:16;100758.16;;;3.76;94.01
55068;BME280;40965;52.368;9.712;2023-02-01T01:14:45;100766.91;;;3.83;93.81
55068;BME280;40965;52.368;9.712;2023-02-01T01:17:11;100770.28;;;3.77;94.17
55068;BME280;40965;52.368;9.712;2023-02-01T01:19:37;100764.34;;;3.83;93.63
55068;BME280;40965;52.368;9.712;2023-02-01T01:22:04;100771.31;;;3.87;93.14
55068;BME280;40965;52.368;9.712;2023-02-01T01:24:30;100761.06;;;3.91;92.95
55068;BME280;40965;52.368;9.712;2023-02-01T01:26:57;100753.38;;;3.96;92.39
55068;BME280;40965;52.368;9.712;2023-02-01T01:29:24;100756.84;;;3.96;92.46
55068;BME280;40965;52.368;9.712;2023-02-01T01:31:50;100737.75;;;3.91;92.65
55068;BME280;40965;52.368;9.712;2023-02-01T01:34:16;100750.59;;;3.87;93.07
55068;BME280;40965;52.368;9.712;2023-02-01T01:36:43;100741.88;;;3.83;93.38
55068;BME280;40965;52.368;9.712;2023-02-01T01:39:09;100750.69;;;3.91;92.85
55068;BME280;40965;52.368;9.712;2023-02-01T01:41:36;100754.19;;;3.95;92.52
55068;BME280;40965;52.368;9.712;2023-02-01T01:44:05;100743.03;;;3.97;92.22
55068;BME280;40965;52.368;9.712;2023-02-01T01:46:37;100736.06;;;3.95;92.16
55068;BME280;40965;52.368;9.712;2023-02-01T01:49:13;100739.53;;;3.94;92.27
55068;BME280;40965;52.368;9.712;2023-02-01T01:51:55;100746.38;;;3.92;92.30
55068;BME280;40965;52.368;9.712;2023-02-01T01:54:30;100738.47;;;3.86;92.94
55068;BME280;40965;52.368;9.712;2023-02-01T01:57:18;100729.84;;;3.85;93.00
55068;BME280;40965;52.368;9.712;2023-02-01T02:00:10;100730.00;;;3.91;92.69
55068;BME280;40965;52.368;9.712;2023-02-01T02:02:43;100729.88;;;3.87;92.88
55068;BME280;40965;52.368;9.712;2023-02-01T02:05:12;100722.84;;;3.79;93.22
55068;BME280;40965;52.368;9.712;2023-02-01T02:07:43;100724.63;;;3.82;93.44
55068;BME280;40965;52.368;9.712;2023-02-01T02:10:13;100723.75;;;3.83;92.97
55068;BME280;40965;52.368;9.712;2023-02-01T02:12:42;100720.22;;;3.78;94.03
55068;BME280;40965;52.368;9.712;2023-02-01T02:15:12;100708.31;;;3.88;93.48
55068;BME280;40965;52.368;9.712;2023-02-01T02:18:05;100724.91;;;3.97;92.66
55068;BME280;40965;52.368;9.712;2023-02-01T02:20:51;100717.34;;;4.08;91.81
55068;BME280;40965;52.368;9.712;2023-02-01T02:24:15;100717.41;;;4.11;91.28
55068;BME280;40965;52.368;9.712;2023-02-01T02:27:17;100709.59;;;4.10;91.98
55068;BME280;40965;52.368;9.712;2023-02-01T02:30:01;100708.66;;;4.05;92.45
55068;BME280;40965;52.368;9.712;2023-02-01T02:33:03;100689.03;;;4.18;91.38
55068;BME280;40965;52.368;9.712;2023-02-01T02:38:38;100680.41;;;4.19;91.15
55068;BME280;40965;52.368;9.712;2023-02-01T02:41:31;100684.69;;;4.18;90.98
55068;BME280;40965;52.368;9.712;2023-02-01T02:44:49;100672.59;;;4.17;91.17
55068;BME280;40965;52.368;9.712;2023-02-01T02:47:46;100664.03;;;4.21;90.93
55068;BME280;40965;52.368;9.712;2023-02-01T02:50:32;100662.28;;;4.19;90.85
55068;BME280;40965;52.368;9.712;2023-02-01T02:53:38;100662.28;;;4.20;90.53
55068;BME280;40965;52.368;9.712;2023-02-01T02:56:27;100665.75;;;4.22;90.64
55068;BME280;40965;52.368;9.712;2023-02-01T02:59:14;100664.94;;;4.25;90.15
55068;BME280;40965;52.368;9.712;2023-02-01T03:01:59;100647.63;;;4.22;90.33
55068;BME280;40965;52.368;9.712;2023-02-01T03:04:43;100640.84;;;4.29;90.30
55068;BME280;40965;52.368;9.712;2023-02-01T03:07:42;100657.16;;;4.25;90.56
55068;BME280;40965;52.368;9.712;2023-02-01T03:10:17;100660.56;;;4.22;90.57
55068;BME280;40965;52.368;9.712;2023-02-01T03:12:50;100649.44;;;4.26;91.00
55068;BME280;40965;52.368;9.712;2023-02-01T03:15:37;100645.97;;;4.26;91.08
55068;BME280;40965;52.368;9.712;2023-02-01T03:21:06;100635.53;;;4.21;91.41
55068;BME280;40965;52.368;9.712;2023-02-01T03:23:37;100637.25;;;4.21;91.57
55068;BME280;40965;52.368;9.712;2023-02-01T03:26:08;100642.41;;;4.19;91.66
55068;BME280;40965;52.368;9.712;2023-02-01T03:28:39;100634.66;;;4.21;91.58
55068;BME280;40965;52.368;9.712;2023-02-01T03:31:09;100620.06;;;4.27;91.00
55068;BME280;40965;52.368;9.712;2023-02-01T03:33:36;100627.94;;;4.34;90.74
55068;BME280;40965;52.368;9.712;2023-02-01T03:36:25;100627.97;;;4.35;90.63
55068;BME280;40965;52.368;9.712;2023-02-01T03:39:07;100616.63;;;4.28;91.34
55068;BME280;40965;52.368;9.712;2023-02-01T03:41:42;100610.63;;;4.31;91.25
55068;BME280;40965;52.368;9.712;2023-02-01T03:44:21;100602.06;;;4.37;91.71
55068;BME280;40965;52.368;9.712;2023-02-01T03:46:54;100608.84;;;4.27;92.52
55068;BME280;40965;52.368;9.712;2023-02-01T03:49:35;100600.00;;;4.16;93.46
55068;BME280;40965;52.368;9.712;2023-02-01T03:52:06;100587.88;;;4.11;94.17
55068;BME280;40965;52.368;9.712;2023-02-01T03:54:37;100578.47;;;4.20;93.39
55068;BME280;40965;52.368;9.712;2023-02-01T03:57:08;100584.50;;;4.17;93.48
55068;BME280;40965;52.368;9.712;2023-02-01T03:59:39;100582.56;;;4.05;94.12
55068;BME280;40965;52.368;9.712;2023-02-01T04:02:09;100578.31;;;4.09;94.48
55068;BME280;40965;52.368;9.712;2023-02-01T04:04:36;100568.94;;;4.17;93.75
55068;BME280;40965;52.368;9.712;2023-02-01T04:07:03;100568.09;;;4.17;94.10
55068;BME280;40965;52.368;9.712;2023-02-01T04:09:29;100583.75;;;4.23;93.64
55068;BME280;40965;52.368;9.712;2023-02-01T04:11:56;100585.50;;;4.24;94.06
55068;BME280;40965;52.368;9.712;2023-02-01T04:14:22;100584.69;;;4.28;93.51
55068;BME280;40965;52.368;9.712;2023-02-01T04:16:48;100577.88;;;4.36;93.44
55068;BME280;40965;52.368;9.712;2023-02-01T04:19:15;100560.59;;;4.37;93.51
55068;BME280;40965;52.368;9.712;2023-02-01T04:21:41;100580.59;;;4.42;93.31
55068;BME280;40965;52.368;9.712;2023-02-01T04:24:08;100575.31;;;4.38;93.92
55068;BME280;40965;52.368;9.712;2023-02-01T04:26:35;100561.50;;;4.39;94.19
55068;BME280;40965;52.368;9.712;2023-02-01T04:29:02;100563.19;;;4.37;93.93
55068;BME280;40965;52.368;9.712;2023-02-01T04:31:28;100563.19;;;4.37;94.04
55068;BME280;40965;52.368;9.712;2023-02-01T04:33:55;100558.81;;;4.31;94.25
55068;BME280;40965;52.368;9.712;2023-02-01T04:36:23;100564.06;;;4.34;94.21
55068;BME280;40965;52.368;9.712;2023-02-01T04:38:50;100549.41;;;4.38;93.59
55068;BME280;40965;52.368;9.712;2023-02-01T04:41:18;100544.28;;;4.42;93.40
55068;BME280;40965;52.368;9.712;2023-02-01T04:43:49;100532.28;;;4.47;92.61
55068;BME280;40965;52.368;9.712;2023-02-01T04:46:15;100539.13;;;4.44;92.90
55068;BME280;40965;52.368;9.712;2023-02-01T04:48:42;100545.13;;;4.41;93.79
55068;BME280;40965;52.368;9.712;2023-02-01T04:51:09;100552.91;;;4.40;94.38
55068;BME280;40965;52.368;9.712;2023-02-01T04:53:36;100535.53;;;4.34;96.67
55068;BME280;40965;52.368;9.712;2023-02-01T04:56:04;100542.97;;;4.12;100.00
55068;BME280;40965;52.368;9.712;2023-02-01T04:58:31;100548.69;;;3.91;100.00
55068;BME280;40965;52.368;9.712;2023-02-01T05:00:57;100542.38;;;3.75;100.00
55068;BME280;40965;52.368;9.712;2023-02-01T05:03:24;100532.75;;;3.67;100.00
55068;BME280;40965;52.368;9.712;2023-02-01T05:05:50;100539.56;;;3.61;100.00
55068;BME280;40965;52.368;9.712;2023-02-01T05:08:18;100534.31;;;3.58;100.00
55068;BME280;40965;52.368;9.712;2023-02-01T05:10:47;100526.47;;;3.54;100.00
55068;BME280;40965;52.368;9.712;2023-02-01T05:13:13;100535.88;;;3.48;100.00
55068;BME280;40965;52.368;9.712;2023-02-01T05:15:57;100528.81;;;3.40;100.00
55068;BME280;40965;52.368;9.712;2023-02-01T05:18:24;100524.38;;;3.33;100.00
55068;BME280;40965;52.368;9.712;2023-02-01T05:20:50;100518.28;;;3.30;100.00
55068;BME280;40965;52.368;9.712;2023-02-01T05:23:17;100501.97;;;3.35;100.00
55068;BME280;40965;52.368;9.712;2023-02-01T05:25:43;100525.22;;;3.31;100.00
55068;BME280;40965;52.368;9.712;2023-02-01T05:28:09;100526.19;;;3.38;100.00
55068;BME280;40965;52.368;9.712;2023-02-01T05:30:36;100524.44;;;3.37;100.00
55068;BME280;40965;52.368;9.712;2023-02-01T05:33:03;100530.41;;;3.31;100.00
55068;BME280;40965;52.368;9.712;2023-02-01T05:35:30;100519.06;;;3.25;100.00
55068;BME280;40965;52.368;9.712;2023-02-01T05:37:56;100516.38;;;3.20;100.00
55068;BME280;40965;52.368;9.712;2023-02-01T05:40:22;100521.59;;;3.23;100.00
55068;BME280;40965;52.368;9.712;2023-02-01T05:42:49;100501.84;;;3.27;100.00
55068;BME280;40965;52.368;9.712;2023-02-01T05:45:15;100503.47;;;3.23;100.00
55068;BME280;40965;52.368;9.712;2023-02-01T05:47:42;100509.69;;;3.31;100.00
55068;BME280;40965;52.368;9.712;2023-02-01T05:50:08;100497.63;;;3.32;100.00
55068;BME280;40965;52.368;9.712;2023-02-01T05:52:35;100502.94;;;3.40;100.00
55068;BME280;40965;52.368;9.712;2023-02-01T05:55:01;100496.09;;;3.43;100.00
55068;BME280;40965;52.368;9.712;2023-02-01T05:57:28;100479.00;;;3.53;100.00
55068;BME280;40965;52.368;9.712;2023-02-01T05:59:55;100487.81;;;3.64;100.00
55068;BME280;40965;52.368;9.712;2023-02-01T06:02:21;100493.94;;;3.68;100.00
55068;BME280;40965;52.368;9.712;2023-02-01T06:04:49;100490.38;;;3.61;100.00
55068;BME280;40965;52.368;9.712;2023-02-01T06:07:16;100472.25;;;3.61;100.00
55068;BME280;40965;52.368;9.712;2023-02-01T06:09:43;100477.50;;;3.66;100.00
55068;BME280;40965;52.368;9.712;2023-02-01T06:12:09;100461.91;;;3.63;100.00
55068;BME280;40965;52.368;9.712;2023-02-01T06:14:36;100466.34;;;3.70;100.00
55068;BME280;40965;52.368;9.712;2023-02-01T06:17:03;100463.81;;;3.73;100.00
55068;BME280;40965;52.368;9.712;2023-02-01T06:19:30;100468.09;;;3.73;100.00
55068;BME280;40965;52.368;9.712;2023-02-01T06:21:57;100453.72;;;3.90;100.00
55068;BME280;40965;52.368;9.712;2023-02-01T06:24:23;100450.31;;;3.94;100.00
55068;BME280;40965;52.368;9.712;2023-02-01T06:26:50;100478.06;;;4.02;100.00
55068;BME280;40965;52.368;9.712;2023-02-01T06:29:16;100468.53;;;3.99;100.00
55068;BME280;40965;52.368;9.712;2023-02-01T06:31:43;100464.09;;;3.93;100.00
55068;BME280;40965;52.368;9.712;2023-02-01T06:34:09;100484.69;;;3.84;100.00
55068;BME280;40965;52.368;9.712;2023-02-01T06:36:36;100486.34;;;3.80;100.00
55068;BME280;40965;52.368;9.712;2023-02-01T06:39:03;100490.53;;;3.72;100.00
55068;BME280;40965;52.368;9.712;2023-02-01T06:41:29;100496.56;;;3.71;100.00
55068;BME280;40965;52.368;9.712;2023-02-01T06:43:56;100487.91;;;3.69;100.00
55068;BME280;40965;52.368;9.712;2023-02-01T06:46:22;100493.13;;;3.71;100.00
55068;BME280;40965;52.368;9.712;2023-02-01T06:48:49;100492.28;;;3.72;100.00
55068;BME280;40965;52.368;9.712;2023-02-01T06:51:22;100490.50;;;3.69;100.00
55068;BME280;40965;52.368;9.712;2023-02-01T06:53:53;100490.38;;;3.61;100.00
55068;BME280;40965;52.368;9.712;2023-02-01T06:56:20;100498.13;;;3.60;100.00
55068;BME280;40965;52.368;9.712;2023-02-01T06:58:47;100504.34;;;3.73;100.00
55068;BME280;40965;52.368;9.712;2023-02-01T07:01:14;100497.31;;;3.64;100.00
55068;BME280;40965;52.368;9.712;2023-02-01T07:03:41;100511.13;;;3.64;100.00
55068;BME280;40965;52.368;9.712;2023-02-01T07:06:08;100508.50;;;3.61;100.00
55068;BME280;40965;52.368;9.712;2023-02-01T07:08:36;100486.13;;;3.65;100.00
55068;BME280;40965;52.368;9.712;2023-02-01T07:11:05;100503.34;;;3.64;100.00
55068;BME280;40965;52.368;9.712;2023-02-01T07:13:33;100518.03;;;3.64;100.00
55068;BME280;40965;52.368;9.712;2023-02-01T07:16:06;100517.19;;;3.65;100.00
55068;BME280;40965;52.368;9.712;2023-02-01T07:18:35;100498.28;;;3.69;100.00
55068;BME280;40965;52.368;9.712;2023-02-01T07:21:02;100504.25;;;3.65;100.00
55068;BME280;40965;52.368;9.712;2023-02-01T07:23:28;100493.91;;;3.65;100.00
55068;BME280;40965;52.368;9.712;2023-02-01T07:26:01;100504.41;;;3.74;100.00
55068;BME280;40965;52.368;9.712;2023-02-01T07:28:30;100508.78;;;3.80;100.00
55068;BME280;40965;52.368;9.712;2023-02-01T07:31:04;100502.78;;;3.83;100.00
55068;BME280;40965;52.368;9.712;2023-02-01T07:33:32;100510.66;;;3.89;100.00
55068;BME280;40965;52.368;9.712;2023-02-01T07:36:01;100518.47;;;3.92;100.00
55068;BME280;40965;52.368;9.712;2023-02-01T07:38:29;100516.91;;;4.02;100.00
55068;BME280;40965;52.368;9.712;2023-02-01T07:41:03;100510.94;;;4.06;100.00
55068;BME280;40965;52.368;9.712;2023-02-01T07:43:31;100510.03;;;4.04;100.00
55068;BME280;40965;52.368;9.712;2023-02-01T07:45:59;100519.53;;;4.05;100.00
55068;BME280;40965;52.368;9.712;2023-02-01T07:48:26;100513.50;;;4.04;100.00
55068;BME280;40965;52.368;9.712;2023-02-01T07:51:00;100524.88;;;4.16;100.00
55068;BME280;40965;52.368;9.712;2023-02-01T07:53:28;100526.66;;;4.18;100.00
55068;BME280;40965;52.368;9.712;2023-02-01T07:55:56;100530.16;;;4.22;100.00
55068;BME280;40965;52.368;9.712;2023-02-01T07:58:23;100512.94;;;4.24;100.00
55068;BME280;40965;52.368;9.712;2023-02-01T08:00:50;100524.19;;;4.27;100.00
55068;BME280;40965;52.368;9.712;2023-02-01T08:03:34;100524.19;;;4.27;100.00
55068;BME280;40965;52.368;9.712;2023-02-01T08:06:00;100537.19;;;4.29;100.00
55068;BME280;40965;52.368;9.712;2023-02-01T08:08:27;100545.88;;;4.33;100.00
55068;BME280;40965;52.368;9.712;2023-02-01T08:10:59;100540.69;;;4.33;100.00
55068;BME280;40965;52.368;9.712;2023-02-01T08:13:27;100543.50;;;4.48;100.00
55068;BME280;40965;52.368;9.712;2023-02-01T08:16:03;100540.03;;;4.46;100.00
55068;BME280;40965;52.368;9.712;2023-02-01T08:18:32;100556.47;;;4.48;100.00
55068;BME280;40965;52.368;9.712;2023-02-01T08:21:04;100546.06;;;4.45;100.00
55068;BME280;40965;52.368;9.712;2023-02-01T08:23:32;100553.84;;;4.45;100.00
55068;BME280;40965;52.368;9.712;2023-02-01T08:28:55;100554.78;;;4.50;100.00
55068;BME280;40965;52.368;9.712;2023-02-01T08:31:24;100558.34;;;4.58;100.00
55068;BME280;40965;52.368;9.712;2023-02-01T08:33:54;100558.44;;;4.64;100.00
55068;BME280;40965;52.368;9.712;2023-02-01T08:36:23;100561.88;;;4.65;100.00
55068;BME280;40965;52.368;9.712;2023-02-01T08:38:50;100558.41;;;4.63;100.00
55068;BME280;40965;52.368;9.712;2023-02-01T08:41:20;100565.31;;;4.64;100.00
55068;BME280;40965;52.368;9.712;2023-02-01T08:43:48;100568.81;;;4.64;100.00
55068;BME280;40965;52.368;9.712;2023-02-01T08:46:15;100535.13;;;4.68;100.00
55068;BME280;40965;52.368;9.712;2023-02-01T08:48:42;100559.41;;;4.74;100.00
55068;BME280;40965;52.368;9.712;2023-02-01T08:51:12;100575.84;;;4.75;100.00
55068;BME280;40965;52.368;9.712;2023-02-01T08:53:39;100569.00;;;4.80;99.99
55068;BME280;40965;52.368;9.712;2023-02-01T08:56:07;100578.59;;;4.87;98.83
55068;BME280;40965;52.368;9.712;2023-02-01T08:58:34;100559.59;;;4.87;99.11
55068;BME280;40965;52.368;9.712;2023-02-01T09:01:08;100565.72;;;4.93;98.18
55068;BME280;40965;52.368;9.712;2023-02-01T09:03:37;100563.13;;;4.93;97.83
55068;BME280;40965;52.368;9.712;2023-02-01T09:06:09;100566.66;;;5.00;97.48
55068;BME280;40965;52.368;9.712;2023-02-01T09:08:38;100560.66;;;5.06;96.98
55068;BME280;40965;52.368;9.712;2023-02-01T09:11:08;100548.75;;;5.22;96.25
55068;BME280;40965;52.368;9.712;2023-02-01T09:13:36;100558.50;;;5.44;93.85
55068;BME280;40965;52.368;9.712;2023-02-01T09:16:03;100564.63;;;5.48;93.98
55068;BME280;40965;52.368;9.712;2023-02-01T09:18:31;100570.66;;;5.49;93.02
55068;BME280;40965;52.368;9.712;2023-02-01T09:20:57;100562.03;;;5.50;93.40
55068;BME280;40965;52.368;9.712;2023-02-01T09:23:24;100567.22;;;5.51;93.44
55068;BME280;40965;52.368;9.712;2023-02-01T09:25:50;100558.59;;;5.54;92.74
55068;BME280;40965;52.368;9.712;2023-02-01T09:28:18;100588.06;;;5.54;92.21
55068;BME280;40965;52.368;9.712;2023-02-01T09:30:45;100562.91;;;5.50;93.02
55068;BME280;40965;52.368;9.712;2023-02-01T09:33:11;100568.06;;;5.47;93.35
55068;BME280;40965;52.368;9.712;2023-02-01T09:35:37;100560.38;;;5.56;92.74
55068;BME280;40965;52.368;9.712;2023-02-01T09:38:04;100570.81;;;5.61;92.29
55068;BME280;40965;52.368;9.712;2023-02-01T09:40:31;100569.97;;;5.65;91.91
55068;BME280;40965;52.368;9.712;2023-02-01T09:43:17;100596.81;;;5.66;91.96
55068;BME280;40965;52.368;9.712;2023-02-01T09:46:03;100581.28;;;5.70;92.45
55068;BME280;40965;52.368;9.712;2023-02-01T09:48:39;100577.03;;;5.77;91.53
55068;BME280;40965;52.368;9.712;2023-02-01T09:51:15;100579.53;;;5.68;91.80
55068;BME280;40965;52.368;9.712;2023-02-01T09:53:57;100576.91;;;5.66;91.65
55068;BME280;40965;52.368;9.712;2023-02-01T09:56:32;100576.94;;;5.69;92.42
55068;BME280;40965;52.368;9.712;2023-02-01T09:59:10;100583.88;;;5.72;91.85
55068;BME280;40965;52.368;9.712;2023-02-01T10:02:01;100585.63;;;5.71;91.30
55068;BME280;40965;52.368;9.712;2023-02-01T10:04:28;100583.06;;;5.74;91.54
55068;BME280;40965;52.368;9.712;2023-02-01T10:07:17;100590.84;;;5.76;91.35
55068;BME280;40965;52.368;9.712;2023-02-01T10:09:59;100578.72;;;5.75;91.14
55068;BME280;40965;52.368;9.712;2023-02-01T10:15:35;100578.91;;;5.93;90.11
55068;BME280;40965;52.368;9.712;2023-02-01T10:18:28;100574.66;;;5.99;89.98
55068;BME280;40965;52.368;9.712;2023-02-01T10:21:07;100564.28;;;6.02;89.74
55068;BME280;40965;52.368;9.712;2023-02-01T10:23:49;100548.69;;;6.02;89.43
55068;BME280;40965;52.368;9.712;2023-02-01T10:26:33;100576.44;;;6.06;89.43
55068;BME280;40965;52.368;9.712;2023-02-01T10:29:04;100554.00;;;6.17;88.43
55068;BME280;40965;52.368;9.712;2023-02-01T10:31:35;100567.00;;;6.14;88.42
55068;BME280;40965;52.368;9.712;2023-02-01T10:34:32;100550.50;;;6.10;87.99
55068;BME280;40965;52.368;9.712;2023-02-01T10:39:45;100550.50;;;6.10;87.18
55068;BME280;40965;52.368;9.712;2023-02-01T10:42:13;100555.66;;;6.06;87.09
55068;BME280;40965;52.368;9.712;2023-02-01T10:44:42;100549.59;;;6.07;87.02
55068;BME280;40965;52.368;9.712;2023-02-01T10:47:10;100566.03;;;6.04;87.50
55068;BME280;40965;52.368;9.712;2023-02-01T10:49:43;100546.09;;;6.03;86.98
55068;BME280;40965;52.368;9.712;2023-02-01T10:52:20;100539.09;;;5.96;86.80
55068;BME280;40965;52.368;9.712;2023-02-01T10:55:27;100550.34;;;5.95;86.56
55068;BME280;40965;52.368;9.712;2023-02-01T10:58:10;100544.22;;;5.88;86.36
55068;BME280;40965;52.368;9.712;2023-02-01T11:00:48;100545.13;;;5.95;86.12
55068;BME280;40965;52.368;9.712;2023-02-01T11:03:33;100537.28;;;5.89;86.46
55068;BME280;40965;52.368;9.712;2023-02-01T11:06:09;100533.84;;;5.93;86.26
55068;BME280;40965;52.368;9.712;2023-02-01T11:09:08;100522.63;;;5.95;85.17
55068;BME280;40965;52.368;9.712;2023-02-01T11:14:16;100505.25;;;5.90;85.56
55068;BME280;40965;52.368;9.712;2023-02-01T11:16:58;100509.63;;;5.95;85.81
55068;BME280;40965;52.368;9.712;2023-02-01T11:19:27;100515.75;;;6.02;85.42
55068;BME280;40965;52.368;9.712;2023-02-01T11:21:55;100522.63;;;5.95;85.62
55068;BME280;40965;52.368;9.712;2023-02-01T11:24:31;100513.13;;;5.97;85.58
55068;BME280;40965;52.368;9.712;2023-02-01T11:27:02;100471.53;;;5.97;85.12
55068;BME280;40965;52.368;9.712;2023-02-01T11:29:36;100494.91;;;5.94;85.46
55068;BME280;40965;52.368;9.712;2023-02-01T11:32:05;100489.69;;;5.93;85.27
55068;BME280;40965;52.368;9.712;2023-02-01T11:34:38;100480.19;;;5.95;85.30
55068;BME280;40965;52.368;9.712;2023-02-01T11:37:16;100473.25;;;5.94;85.24
55068;BME280;40965;52.368;9.712;2023-02-01T11:39:57;100467.22;;;5.98;84.89
55068;BME280;40965;52.368;9.712;2023-02-01T11:42:27;100469.03;;;6.04;84.85
55068;BME280;40965;52.368;9.712;2023-02-01T11:45:30;100462.16;;;6.13;85.07
55068;BME280;40965;52.368;9.712;2023-02-01T11:47:58;100438.84;;;6.27;84.60
55068;BME280;40965;52.368;9.712;2023-02-01T11:57:23;100425.06;;;6.50;83.59
55068;BME280;40965;52.368;9.712;2023-02-01T12:00:26;100414.72;;;6.62;83.11
55068;BME280;40965;52.368;9.712;2023-02-01T12:12:13;100374.00;;;6.82;80.61
55068;BME280;40965;52.368;9.712;2023-02-01T12:15:05;100368.81;;;6.77;80.31
55068;BME280;40965;52.368;9.712;2023-02-01T12:20:55;100363.50;;;6.44;81.99
55068;BME280;40965;52.368;9.712;2023-02-01T12:26:50;100338.31;;;6.28;84.77
55068;BME280;40965;52.368;9.712;2023-02-01T12:35:49;100339.78;;;5.78;89.43
55068;BME280;40965;52.368;9.712;2023-02-01T12:43:58;100334.22;;;5.19;97.52
55068;BME280;40965;52.368;9.712;2023-02-01T12:46:57;100328.88;;;5.02;99.74
55068;BME280;40965;52.368;9.712;2023-02-01T12:52:38;100305.47;;;4.93;100.00
55068;BME280;40965;52.368;9.712;2023-02-01T12:58:24;100302.03;;;4.97;100.00
55068;BME280;40965;52.368;9.712;2023-02-01T13:01:02;100327.09;;;4.96;100.00
55068;BME280;40965;52.368;9.712;2023-02-01T13:03:52;100327.91;;;4.92;100.00
55068;BME280;40965;52.368;9.712;2023-02-01T13:06:27;100324.56;;;5.03;100.00
55068;BME280;40965;52.368;9.712;2023-02-01T13:09:07;100308.00;;;4.88;100.00
55068;BME280;40965;52.368;9.712;2023-02-01T13:11:44;100301.91;;;4.86;100.00
55068;BME280;40965;52.368;9.712;2023-02-01T13:14:32;100307.03;;;4.75;100.00
55068;BME280;40965;52.368;9.712;2023-02-01T13:17:11;100301.44;;;4.34;100.00
55068;BME280;40965;52.368;9.712;2023-02-01T13:19:52;100305.56;;;4.16;100.00
55068;BME280;40965;52.368;9.712;2023-02-01T13:22:26;100317.53;;;4.08;100.00
55068;BME280;40965;52.368;9.712;2023-02-01T13:24:59;100317.38;;;3.94;100.00
55068;BME280;40965;52.368;9.712;2023-02-01T13:27:28;100331.09;;;3.88;100.00
55068;BME280;40965;52.368;9.712;2023-02-01T13:29:59;100346.50;;;3.76;100.00
55068;BME280;40965;52.368;9.712;2023-02-01T13:32:54;100466.31;;;3.69;100.00
55068;BME280;40965;52.368;9.712;2023-02-01T13:35:54;100471.16;;;3.00;100.00
55068;BME280;40965;52.368;9.712;2023-02-01T13:39:05;100479.16;;;1.88;100.00
55068;BME280;40965;52.368;9.712;2023-02-01T13:41:55;100432.22;;;0.98;100.00
55068;BME280;40965;52.368;9.712;2023-02-01T13:44:36;100423.16;;;0.82;100.00
55068;BME280;40965;52.368;9.712;2023-02-01T13:47:16;100450.72;;;0.85;100.00
55068;BME280;40965;52.368;9.712;2023-02-01T13:49:50;100463.38;;;1.07;100.00
55068;BME280;40965;52.368;9.712;2023-02-01T13:52:38;100446.53;;;1.20;100.00
55068;BME280;40965;52.368;9.712;2023-02-01T13:57:41;100448.38;;;1.26;100.00
55068;BME280;40965;52.368;9.712;2023-02-01T14:00:29;100438.63;;;1.14;100.00
55068;BME280;40965;52.368;9.712;2023-02-01T14:03:09;100416.09;;;1.07;100.00
55068;BME280;40965;52.368;9.712;2023-02-01T14:08:12;100434.81;;;0.99;100.00
55068;BME280;40965;52.368;9.712;2023-02-01T14:10:53;100450.25;;;0.98;100.00
55068;BME280;40965;52.368;9.712;2023-02-01T14:13:36;100454.50;;;0.97;100.00
55068;BME280;40965;52.368;9.712;2023-02-01T14:42:39;100474.72;;;1.47;100.00
55068;BME280;40965;52.368;9.712;2023-02-01T14:50:34;100491.56;;;1.68;100.00
55068;BME280;40965;52.368;9.712;2023-02-01T15:01:36;100515.00;;;1.42;100.00
55068;BME280;40965;52.368;9.712;2023-02-01T15:04:08;100507.88;;;1.32;100.00
55068;BME280;40965;52.368;9.712;2023-02-01T15:09:20;100504.31;;;1.28;100.00
55068;BME280;40965;52.368;9.712;2023-02-01T15:12:17;100498.59;;;1.40;100.00